sensor_id;sensor_type;location;lat;lon;timestamp;P1;durP1;ratioP1;P2;durP2;ratioP2
13641;SDS011;6894;52.196;9.904;2023-08-21T00:01:39;7.47;;;3.50;;
13641;SDS011;6894;52.196;9.904;2023-08-21T00:04:05;5.37;;;3.50;;
13641;SDS011;6894;52.196;9.904;2023-08-21T00:06:32;5.20;;;3.70;;
13641;SDS011;6894;52.196;9.904;2023-08-21T00:08:59;3.90;;;3.37;;
13641;SDS011;6894;52.196;9.904;2023-08-21T00:11:26;6.10;;;3.43;;
13641;SDS011;6894;52.196;9.904;2023-08-21T00:13:53;4.17;;;3.07;;
13641;SDS011;6894;52.196;9.904;2023-08-21T00:16:20;3.73;;;3.17;;
13641;SDS011;6894;52.196;9.904;2023-08-21T00:18:48;5.17;;;3.10;;
13641;SDS011;6894;52.196;9.904;2023-08-21T00:21:15;4.63;;;3.13;;
13641;SDS011;6894;52.196;9.904;2023-08-21T00:23:41;6.20;;;2.90;;
13641;SDS011;6894;52.196;9.904;2023-08-21T00:26:08;3.90;;;2.87;;
13641;SDS011;6894;52.196;9.904;2023-08-21T00:28:35;3.77;;;3.20;;
13641;SDS011;6894;52.196;9.904;2023-08-21T00:31:02;8.30;;;3.40;;
13641;SDS011;6894;52.196;9.904;2023-08-21T00:33:30;5.43;;;3.37;;
13641;SDS011;6894;52.196;9.904;2023-08-21T00:35:58;4.17;;;3.33;;
13641;SDS011;6894;52.196;9.904;2023-08-21T00:38:25;4.70;;;3.00;;
13641;SDS011;6894;52.196;9.904;2023-08-21T00:40:52;4.37;;;2.93;;
13641;SDS011;6894;52.196;9.904;2023-08-21T00:43:19;7.27;;;3.60;;
13641;SDS011;6894;52.196;9.904;2023-08-21T00:45:46;4.33;;;3.20;;
13641;SDS011;6894;52.196;9.904;2023-08-21T00:48:15;4.73;;;2.80;;
13641;SDS011;6894;52.196;9.904;2023-08-21T00:50:43;6.10;;;3.30;;
13641;SDS011;6894;52.196;9.904;2023-08-21T00:53:12;4.10;;;3.00;;
13641;SDS011;6894;52.196;9.904;2023-08-21T00:55:40;3.97;;;2.83;;
13641;SDS011;6894;52.196;9.904;2023-08-21T00:58:07;7.77;;;3.60;;
13641;SDS011;6894;52.196;9.904;2023-08-21T01:00:36;3.87;;;2.60;;
13641;SDS011;6894;52.196;9.904;2023-08-21T01:03:03;3.57;;;2.77;;
13641;SDS011;6894;52.196;9.904;2023-08-21T01:05:30;3.33;;;2.10;;
13641;SDS011;6894;52.196;9.904;2023-08-21T01:07:59;4.80;;;2.53;;
13641;SDS011;6894;52.196;9.904;2023-08-21T01:10:32;4.57;;;2.60;;
13641;SDS011;6894;52.196;9.904;2023-08-21T01:13:13;3.73;;;2.60;;
13641;SDS011;6894;52.196;9.904;2023-08-21T01:15:59;6.33;;;2.80;;
13641;SDS011;6894;52.196;9.904;2023-08-21T01:18:26;3.50;;;2.80;;
13641;SDS011;6894;52.196;9.904;2023-08-21T01:20:55;5.27;;;2.77;;
13641;SDS011;6894;52.196;9.904;2023-08-21T01:23:31;4.57;;;2.60;;
13641;SDS011;6894;52.196;9.904;2023-08-21T01:25:59;5.50;;;2.70;;
13641;SDS011;6894;52.196;9.904;2023-08-21T01:28:26;2.87;;;2.43;;
13641;SDS011;6894;52.196;9.904;2023-08-21T01:30:56;7.37;;;3.00;;
13641;SDS011;6894;52.196;9.904;2023-08-21T01:33:29;4.07;;;2.77;;
13641;SDS011;6894;52.196;9.904;2023-08-21T01:35:59;5.13;;;2.30;;
13641;SDS011;6894;52.196;9.904;2023-08-21T01:38:29;5.50;;;2.73;;
13641;SDS011;6894;52.196;9.904;2023-08-21T01:41:00;3.90;;;2.33;;
13641;SDS011;6894;52.196;9.904;2023-08-21T01:43:27;7.37;;;2.57;;
13641;SDS011;6894;52.196;9.904;2023-08-21T01:45:54;3.53;;;2.47;;
13641;SDS011;6894;52.196;9.904;2023-08-21T01:48:21;5.70;;;2.63;;
13641;SDS011;6894;52.196;9.904;2023-08-21T01:50:47;4.50;;;2.90;;
13641;SDS011;6894;52.196;9.904;2023-08-21T01:53:14;3.17;;;2.63;;
13641;SDS011;6894;52.196;9.904;2023-08-21T01:55:42;4.47;;;2.73;;
13641;SDS011;6894;52.196;9.904;2023-08-21T01:58:09;5.80;;;2.80;;
13641;SDS011;6894;52.196;9.904;2023-08-21T02:00:36;3.77;;;2.40;;
13641;SDS011;6894;52.196;9.904;2023-08-21T02:03:03;2.67;;;2.43;;
13641;SDS011;6894;52.196;9.904;2023-08-21T02:05:29;5.77;;;3.00;;
13641;SDS011;6894;52.196;9.904;2023-08-21T02:07:56;3.10;;;2.40;;
13641;SDS011;6894;52.196;9.904;2023-08-21T02:10:23;4.33;;;2.60;;
13641;SDS011;6894;52.196;9.904;2023-08-21T02:12:51;4.07;;;2.50;;
13641;SDS011;6894;52.196;9.904;2023-08-21T02:15:19;2.90;;;2.60;;
13641;SDS011;6894;52.196;9.904;2023-08-21T02:17:47;6.33;;;3.27;;
13641;SDS011;6894;52.196;9.904;2023-08-21T02:20:14;4.40;;;2.50;;
13641;SDS011;6894;52.196;9.904;2023-08-21T02:22:40;3.13;;;2.30;;
13641;SDS011;6894;52.196;9.904;2023-08-21T02:25:07;5.83;;;2.10;;
13641;SDS011;6894;52.196;9.904;2023-08-21T02:27:34;5.30;;;3.30;;
13641;SDS011;6894;52.196;9.904;2023-08-21T02:30:03;6.17;;;2.93;;
13641;SDS011;6894;52.196;9.904;2023-08-21T02:32:30;3.13;;;2.80;;
13641;SDS011;6894;52.196;9.904;2023-08-21T02:34:57;4.97;;;3.20;;
13641;SDS011;6894;52.196;9.904;2023-08-21T02:37:23;2.63;;;2.43;;
13641;SDS011;6894;52.196;9.904;2023-08-21T02:39:50;5.53;;;2.60;;
13641;SDS011;6894;52.196;9.904;2023-08-21T02:42:17;6.00;;;2.50;;
13641;SDS011;6894;52.196;9.904;2023-08-21T02:44:44;5.73;;;2.47;;
13641;SDS011;6894;52.196;9.904;2023-08-21T02:47:13;3.10;;;2.50;;
13641;SDS011;6894;52.196;9.904;2023-08-21T02:49:39;5.10;;;2.77;;
13641;SDS011;6894;52.196;9.904;2023-08-21T02:52:06;5.60;;;2.50;;
13641;SDS011;6894;52.196;9.904;2023-08-21T02:54:33;6.10;;;3.67;;
13641;SDS011;6894;52.196;9.904;2023-08-21T02:57:00;4.33;;;2.83;;
13641;SDS011;6894;52.196;9.904;2023-08-21T02:59:27;3.50;;;2.93;;
13641;SDS011;6894;52.196;9.904;2023-08-21T03:01:53;3.23;;;2.67;;
13641;SDS011;6894;52.196;9.904;2023-08-21T03:04:22;3.03;;;2.57;;
13641;SDS011;6894;52.196;9.904;2023-08-21T03:06:49;2.47;;;2.27;;
13641;SDS011;6894;52.196;9.904;2023-08-21T03:09:15;3.77;;;3.10;;
13641;SDS011;6894;52.196;9.904;2023-08-21T03:11:42;3.83;;;2.40;;
13641;SDS011;6894;52.196;9.904;2023-08-21T03:14:09;4.10;;;2.40;;
13641;SDS011;6894;52.196;9.904;2023-08-21T03:16:36;3.87;;;2.27;;
13641;SDS011;6894;52.196;9.904;2023-08-21T03:19:02;3.47;;;2.30;;
13641;SDS011;6894;52.196;9.904;2023-08-21T03:21:30;4.60;;;3.13;;
13641;SDS011;6894;52.196;9.904;2023-08-21T03:23:58;5.17;;;2.47;;
13641;SDS011;6894;52.196;9.904;2023-08-21T03:26:25;3.07;;;2.30;;
13641;SDS011;6894;52.196;9.904;2023-08-21T03:28:52;3.50;;;2.60;;
13641;SDS011;6894;52.196;9.904;2023-08-21T03:31:19;3.70;;;3.00;;
13641;SDS011;6894;52.196;9.904;2023-08-21T03:33:45;4.43;;;2.60;;
13641;SDS011;6894;52.196;9.904;2023-08-21T03:36:13;5.30;;;2.60;;
13641;SDS011;6894;52.196;9.904;2023-08-21T03:38:41;3.13;;;2.83;;
13641;SDS011;6894;52.196;9.904;2023-08-21T03:41:07;4.90;;;2.87;;
13641;SDS011;6894;52.196;9.904;2023-08-21T03:43:34;3.77;;;2.50;;
13641;SDS011;6894;52.196;9.904;2023-08-21T03:46:01;3.97;;;2.50;;
13641;SDS011;6894;52.196;9.904;2023-08-21T03:48:28;4.00;;;2.70;;
13641;SDS011;6894;52.196;9.904;2023-08-21T03:50:55;5.90;;;2.40;;
13641;SDS011;6894;52.196;9.904;2023-08-21T03:53:21;3.37;;;2.20;;
13641;SDS011;6894;52.196;9.904;2023-08-21T03:55:50;3.90;;;2.67;;
13641;SDS011;6894;52.196;9.904;2023-08-21T03:58:17;5.67;;;3.00;;
13641;SDS011;6894;52.196;9.904;2023-08-21T04:00:43;5.40;;;2.47;;
13641;SDS011;6894;52.196;9.904;2023-08-21T04:03:11;3.50;;;2.27;;
13641;SDS011;6894;52.196;9.904;2023-08-21T04:05:38;3.13;;;2.27;;
13641;SDS011;6894;52.196;9.904;2023-08-21T04:08:05;2.60;;;2.40;;
13641;SDS011;6894;52.196;9.904;2023-08-21T04:10:31;4.27;;;2.30;;
13641;SDS011;6894;52.196;9.904;2023-08-21T04:13:00;5.73;;;2.50;;
13641;SDS011;6894;52.196;9.904;2023-08-21T04:15:27;3.63;;;2.30;;
13641;SDS011;6894;52.196;9.904;2023-08-21T04:17:54;3.83;;;2.37;;
13641;SDS011;6894;52.196;9.904;2023-08-21T04:20:21;3.20;;;2.40;;
13641;SDS011;6894;52.196;9.904;2023-08-21T04:22:48;4.70;;;2.50;;
13641;SDS011;6894;52.196;9.904;2023-08-21T04:25:14;6.63;;;2.73;;
13641;SDS011;6894;52.196;9.904;2023-08-21T04:27:41;5.67;;;3.00;;
13641;SDS011;6894;52.196;9.904;2023-08-21T04:30:10;4.50;;;3.37;;
13641;SDS011;6894;52.196;9.904;2023-08-21T04:32:38;5.37;;;3.33;;
13641;SDS011;6894;52.196;9.904;2023-08-21T04:35:05;5.03;;;3.53;;
13641;SDS011;6894;52.196;9.904;2023-08-21T04:37:33;5.10;;;3.87;;
13641;SDS011;6894;52.196;9.904;2023-08-21T04:40:00;6.27;;;3.37;;
13641;SDS011;6894;52.196;9.904;2023-08-21T04:42:27;4.20;;;3.27;;
13641;SDS011;6894;52.196;9.904;2023-08-21T04:44:54;5.60;;;3.20;;
13641;SDS011;6894;52.196;9.904;2023-08-21T04:47:22;6.30;;;3.03;;
13641;SDS011;6894;52.196;9.904;2023-08-21T04:49:51;5.03;;;3.00;;
13641;SDS011;6894;52.196;9.904;2023-08-21T04:52:18;6.43;;;2.73;;
13641;SDS011;6894;52.196;9.904;2023-08-21T04:54:46;5.90;;;2.33;;
13641;SDS011;6894;52.196;9.904;2023-08-21T04:57:13;3.63;;;2.30;;
13641;SDS011;6894;52.196;9.904;2023-08-21T04:59:40;5.07;;;2.40;;
13641;SDS011;6894;52.196;9.904;2023-08-21T05:02:07;6.27;;;3.13;;
13641;SDS011;6894;52.196;9.904;2023-08-21T05:04:35;5.50;;;2.33;;
13641;SDS011;6894;52.196;9.904;2023-08-21T05:07:03;5.13;;;2.17;;
13641;SDS011;6894;52.196;9.904;2023-08-21T05:09:30;3.40;;;2.20;;
13641;SDS011;6894;52.196;9.904;2023-08-21T05:11:57;3.13;;;2.03;;
13641;SDS011;6894;52.196;9.904;2023-08-21T05:14:24;5.20;;;2.30;;
13641;SDS011;6894;52.196;9.904;2023-08-21T05:16:50;4.33;;;1.63;;
13641;SDS011;6894;52.196;9.904;2023-08-21T05:19:17;2.17;;;1.80;;
13641;SDS011;6894;52.196;9.904;2023-08-21T05:21:45;5.37;;;1.87;;
13641;SDS011;6894;52.196;9.904;2023-08-21T05:24:12;3.23;;;1.50;;
13641;SDS011;6894;52.196;9.904;2023-08-21T05:26:39;2.60;;;1.87;;
13641;SDS011;6894;52.196;9.904;2023-08-21T05:29:05;3.30;;;1.80;;
13641;SDS011;6894;52.196;9.904;2023-08-21T05:31:32;2.80;;;1.80;;
13641;SDS011;6894;52.196;9.904;2023-08-21T05:34:00;3.83;;;2.00;;
13641;SDS011;6894;52.196;9.904;2023-08-21T05:36:27;3.83;;;1.77;;
13641;SDS011;6894;52.196;9.904;2023-08-21T05:38:55;5.63;;;2.00;;
13641;SDS011;6894;52.196;9.904;2023-08-21T05:41:23;4.53;;;1.60;;
13641;SDS011;6894;52.196;9.904;2023-08-21T05:43:49;4.73;;;1.87;;
13641;SDS011;6894;52.196;9.904;2023-08-21T05:46:16;3.30;;;1.67;;
13641;SDS011;6894;52.196;9.904;2023-08-21T05:48:43;3.23;;;1.97;;
13641;SDS011;6894;52.196;9.904;2023-08-21T05:51:10;2.87;;;2.00;;
13641;SDS011;6894;52.196;9.904;2023-08-21T05:53:36;3.27;;;2.40;;
13641;SDS011;6894;52.196;9.904;2023-08-21T05:56:05;4.23;;;1.90;;
13641;SDS011;6894;52.196;9.904;2023-08-21T05:58:31;3.60;;;1.60;;
13641;SDS011;6894;52.196;9.904;2023-08-21T06:00:58;3.37;;;1.60;;
13641;SDS011;6894;52.196;9.904;2023-08-21T06:03:25;3.50;;;2.03;;
13641;SDS011;6894;52.196;9.904;2023-08-21T06:05:52;6.83;;;2.30;;
13641;SDS011;6894;52.196;9.904;2023-08-21T06:08:19;3.33;;;1.70;;
13641;SDS011;6894;52.196;9.904;2023-08-21T06:10:50;3.73;;;1.70;;
13641;SDS011;6894;52.196;9.904;2023-08-21T06:13:18;2.87;;;1.70;;
13641;SDS011;6894;52.196;9.904;2023-08-21T06:15:45;5.57;;;2.10;;
13641;SDS011;6894;52.196;9.904;2023-08-21T06:18:12;4.47;;;1.70;;
13641;SDS011;6894;52.196;9.904;2023-08-21T06:20:39;3.33;;;1.97;;
13641;SDS011;6894;52.196;9.904;2023-08-21T06:23:08;2.73;;;1.77;;
13641;SDS011;6894;52.196;9.904;2023-08-21T06:25:35;2.87;;;1.53;;
13641;SDS011;6894;52.196;9.904;2023-08-21T06:28:02;2.77;;;1.40;;
13641;SDS011;6894;52.196;9.904;2023-08-21T06:30:30;2.73;;;1.70;;
13641;SDS011;6894;52.196;9.904;2023-08-21T06:32:57;4.20;;;1.67;;
13641;SDS011;6894;52.196;9.904;2023-08-21T06:35:24;5.23;;;2.07;;
13641;SDS011;6894;52.196;9.904;2023-08-21T06:37:51;2.23;;;1.47;;
13641;SDS011;6894;52.196;9.904;2023-08-21T06:40:19;3.40;;;1.50;;
13641;SDS011;6894;52.196;9.904;2023-08-21T06:42:46;4.50;;;1.50;;
13641;SDS011;6894;52.196;9.904;2023-08-21T06:45:14;3.40;;;1.53;;
13641;SDS011;6894;52.196;9.904;2023-08-21T06:47:42;5.23;;;1.60;;
13641;SDS011;6894;52.196;9.904;2023-08-21T06:50:09;2.93;;;1.57;;
13641;SDS011;6894;52.196;9.904;2023-08-21T06:52:36;4.37;;;1.77;;
13641;SDS011;6894;52.196;9.904;2023-08-21T06:55:03;4.30;;;1.80;;
13641;SDS011;6894;52.196;9.904;2023-08-21T06:57:30;2.90;;;1.70;;
13641;SDS011;6894;52.196;9.904;2023-08-21T06:59:57;4.47;;;1.87;;
13641;SDS011;6894;52.196;9.904;2023-08-21T07:02:24;3.00;;;1.70;;
13641;SDS011;6894;52.196;9.904;2023-08-21T07:04:52;10.20;;;2.10;;
13641;SDS011;6894;52.196;9.904;2023-08-21T07:07:18;4.27;;;2.03;;
13641;SDS011;6894;52.196;9.904;2023-08-21T07:09:45;2.73;;;1.70;;
13641;SDS011;6894;52.196;9.904;2023-08-21T07:12:12;3.33;;;1.40;;
13641;SDS011;6894;52.196;9.904;2023-08-21T07:14:39;3.70;;;1.77;;
13641;SDS011;6894;52.196;9.904;2023-08-21T07:17:05;3.17;;;1.80;;
13641;SDS011;6894;52.196;9.904;2023-08-21T07:19:32;3.60;;;1.83;;
13641;SDS011;6894;52.196;9.904;2023-08-21T07:22:00;3.23;;;2.17;;
13641;SDS011;6894;52.196;9.904;2023-08-21T07:24:27;4.33;;;1.87;;
13641;SDS011;6894;52.196;9.904;2023-08-21T07:26:54;4.03;;;1.93;;
13641;SDS011;6894;52.196;9.904;2023-08-21T07:29:20;4.43;;;2.10;;
13641;SDS011;6894;52.196;9.904;2023-08-21T07:31:47;4.30;;;1.60;;
13641;SDS011;6894;52.196;9.904;2023-08-21T07:34:14;6.27;;;2.27;;
13641;SDS011;6894;52.196;9.904;2023-08-21T07:36:41;3.20;;;1.80;;
13641;SDS011;6894;52.196;9.904;2023-08-21T07:39:09;3.77;;;2.40;;
13641;SDS011;6894;52.196;9.904;2023-08-21T07:41:35;3.73;;;2.03;;
13641;SDS011;6894;52.196;9.904;2023-08-21T07:44:03;2.37;;;2.13;;
13641;SDS011;6894;52.196;9.904;2023-08-21T07:46:30;3.10;;;2.10;;
13641;SDS011;6894;52.196;9.904;2023-08-21T07:48:56;2.90;;;2.03;;
13641;SDS011;6894;52.196;9.904;2023-08-21T07:51:23;4.23;;;1.90;;
13641;SDS011;6894;52.196;9.904;2023-08-21T07:53:50;4.57;;;1.67;;
13641;SDS011;6894;52.196;9.904;2023-08-21T07:56:18;3.43;;;2.00;;
13641;SDS011;6894;52.196;9.904;2023-08-21T07:58:45;3.67;;;1.67;;
13641;SDS011;6894;52.196;9.904;2023-08-21T08:01:11;4.20;;;1.80;;
13641;SDS011;6894;52.196;9.904;2023-08-21T08:03:38;3.40;;;1.90;;
13641;SDS011;6894;52.196;9.904;2023-08-21T08:06:05;4.30;;;1.90;;
13641;SDS011;6894;52.196;9.904;2023-08-21T08:08:31;3.73;;;1.87;;
13641;SDS011;6894;52.196;9.904;2023-08-21T08:11:00;4.37;;;2.30;;
13641;SDS011;6894;52.196;9.904;2023-08-21T08:13:29;2.77;;;1.57;;
13641;SDS011;6894;52.196;9.904;2023-08-21T08:15:57;2.93;;;1.63;;
13641;SDS011;6894;52.196;9.904;2023-08-21T08:18:24;4.30;;;1.60;;
13641;SDS011;6894;52.196;9.904;2023-08-21T08:20:50;3.38;;;2.15;;
13641;SDS011;6894;52.196;9.904;2023-08-21T08:23:17;4.23;;;2.27;;
13641;SDS011;6894;52.196;9.904;2023-08-21T08:25:45;5.73;;;2.20;;
13641;SDS011;6894;52.196;9.904;2023-08-21T08:28:12;4.32;;;1.90;;
13641;SDS011;6894;52.196;9.904;2023-08-21T08:30:40;3.23;;;2.00;;
13641;SDS011;6894;52.196;9.904;2023-08-21T08:33:06;4.65;;;1.70;;
13641;SDS011;6894;52.196;9.904;2023-08-21T08:35:33;5.15;;;2.28;;
13641;SDS011;6894;52.196;9.904;2023-08-21T08:38:00;4.30;;;1.90;;
13641;SDS011;6894;52.196;9.904;2023-08-21T08:40:27;3.53;;;1.48;;
13641;SDS011;6894;52.196;9.904;2023-08-21T08:42:54;3.40;;;1.23;;
13641;SDS011;6894;52.196;9.904;2023-08-21T08:45:23;4.50;;;1.45;;
13641;SDS011;6894;52.196;9.904;2023-08-21T08:47:57;3.03;;;1.15;;
13641;SDS011;6894;52.196;9.904;2023-08-21T08:50:27;4.68;;;1.25;;
13641;SDS011;6894;52.196;9.904;2023-08-21T08:52:55;3.47;;;1.40;;
13641;SDS011;6894;52.196;9.904;2023-08-21T08:55:24;3.83;;;1.40;;
13641;SDS011;6894;52.196;9.904;2023-08-21T08:57:51;3.88;;;1.48;;
13641;SDS011;6894;52.196;9.904;2023-08-21T09:00:19;5.22;;;1.65;;
13641;SDS011;6894;52.196;9.904;2023-08-21T09:02:47;3.78;;;1.23;;
13641;SDS011;6894;52.196;9.904;2023-08-21T09:05:15;3.92;;;1.58;;
13641;SDS011;6894;52.196;9.904;2023-08-21T09:07:42;3.95;;;1.27;;
13641;SDS011;6894;52.196;9.904;2023-08-21T09:10:12;4.75;;;1.30;;
13641;SDS011;6894;52.196;9.904;2023-08-21T09:12:40;5.30;;;1.45;;
13641;SDS011;6894;52.196;9.904;2023-08-21T09:15:10;3.72;;;1.10;;
13641;SDS011;6894;52.196;9.904;2023-08-21T09:17:37;4.38;;;1.58;;
13641;SDS011;6894;52.196;9.904;2023-08-21T09:20:04;6.05;;;1.58;;
13641;SDS011;6894;52.196;9.904;2023-08-21T09:22:33;4.30;;;1.30;;
13641;SDS011;6894;52.196;9.904;2023-08-21T09:25:01;3.58;;;1.35;;
13641;SDS011;6894;52.196;9.904;2023-08-21T09:27:31;3.33;;;1.10;;
13641;SDS011;6894;52.196;9.904;2023-08-21T09:29:59;3.15;;;1.40;;
13641;SDS011;6894;52.196;9.904;2023-08-21T09:32:26;2.67;;;1.10;;
13641;SDS011;6894;52.196;9.904;2023-08-21T09:34:53;4.50;;;1.17;;
13641;SDS011;6894;52.196;9.904;2023-08-21T09:37:20;5.53;;;1.45;;
13641;SDS011;6894;52.196;9.904;2023-08-21T09:39:48;2.45;;;1.13;;
13641;SDS011;6894;52.196;9.904;2023-08-21T09:42:15;4.00;;;1.30;;
13641;SDS011;6894;52.196;9.904;2023-08-21T09:44:44;2.63;;;1.20;;
13641;SDS011;6894;52.196;9.904;2023-08-21T09:47:11;2.42;;;1.05;;
13641;SDS011;6894;52.196;9.904;2023-08-21T09:49:39;3.65;;;1.10;;
13641;SDS011;6894;52.196;9.904;2023-08-21T09:52:06;3.05;;;0.85;;
13641;SDS011;6894;52.196;9.904;2023-08-21T09:54:35;4.50;;;1.33;;
13641;SDS011;6894;52.196;9.904;2023-08-21T09:57:04;4.18;;;1.58;;
13641;SDS011;6894;52.196;9.904;2023-08-21T09:59:31;4.65;;;1.42;;
13641;SDS011;6894;52.196;9.904;2023-08-21T10:01:59;3.58;;;1.40;;
13641;SDS011;6894;52.196;9.904;2023-08-21T10:04:27;7.07;;;1.45;;
13641;SDS011;6894;52.196;9.904;2023-08-21T10:06:56;2.47;;;1.10;;
13641;SDS011;6894;52.196;9.904;2023-08-21T10:09:24;4.47;;;1.23;;
13641;SDS011;6894;52.196;9.904;2023-08-21T10:11:51;4.78;;;1.42;;
13641;SDS011;6894;52.196;9.904;2023-08-21T10:14:21;2.47;;;0.93;;
13641;SDS011;6894;52.196;9.904;2023-08-21T10:16:50;4.40;;;1.40;;
13641;SDS011;6894;52.196;9.904;2023-08-21T10:19:19;2.35;;;0.80;;
13641;SDS011;6894;52.196;9.904;2023-08-21T10:21:46;3.00;;;0.93;;
13641;SDS011;6894;52.196;9.904;2023-08-21T10:24:22;4.72;;;1.52;;
13641;SDS011;6894;52.196;9.904;2023-08-21T10:26:53;3.50;;;1.10;;
13641;SDS011;6894;52.196;9.904;2023-08-21T10:29:21;3.58;;;0.95;;
13641;SDS011;6894;52.196;9.904;2023-08-21T10:31:48;3.42;;;1.08;;
13641;SDS011;6894;52.196;9.904;2023-08-21T10:34:25;2.90;;;1.38;;
13641;SDS011;6894;52.196;9.904;2023-08-21T10:37:08;4.40;;;1.35;;
13641;SDS011;6894;52.196;9.904;2023-08-21T10:39:38;4.43;;;1.70;;
13641;SDS011;6894;52.196;9.904;2023-08-21T10:42:21;5.38;;;1.38;;
13641;SDS011;6894;52.196;9.904;2023-08-21T10:45:10;5.28;;;1.42;;
13641;SDS011;6894;52.196;9.904;2023-08-21T10:47:38;4.57;;;1.42;;
13641;SDS011;6894;52.196;9.904;2023-08-21T10:50:05;4.85;;;1.35;;
13641;SDS011;6894;52.196;9.904;2023-08-21T10:52:35;3.30;;;1.00;;
13641;SDS011;6894;52.196;9.904;2023-08-21T10:55:03;4.00;;;1.30;;
13641;SDS011;6894;52.196;9.904;2023-08-21T10:57:31;4.03;;;1.27;;
13641;SDS011;6894;52.196;9.904;2023-08-21T10:59:59;4.25;;;1.10;;
13641;SDS011;6894;52.196;9.904;2023-08-21T11:02:30;3.70;;;1.20;;
13641;SDS011;6894;52.196;9.904;2023-08-21T11:04:58;2.67;;;1.10;;
13641;SDS011;6894;52.196;9.904;2023-08-21T11:07:26;3.65;;;1.20;;
13641;SDS011;6894;52.196;9.904;2023-08-21T11:09:53;4.60;;;1.23;;
13641;SDS011;6894;52.196;9.904;2023-08-21T11:12:20;3.30;;;1.20;;
13641;SDS011;6894;52.196;9.904;2023-08-21T11:14:48;2.97;;;1.05;;
13641;SDS011;6894;52.196;9.904;2023-08-21T11:17:16;2.78;;;1.15;;
13641;SDS011;6894;52.196;9.904;2023-08-21T11:19:44;5.50;;;1.48;;
13641;SDS011;6894;52.196;9.904;2023-08-21T11:22:13;6.03;;;1.30;;
13641;SDS011;6894;52.196;9.904;2023-08-21T11:24:40;4.20;;;1.30;;
13641;SDS011;6894;52.196;9.904;2023-08-21T11:27:09;5.50;;;1.52;;
13641;SDS011;6894;52.196;9.904;2023-08-21T11:29:37;2.88;;;1.40;;
13641;SDS011;6894;52.196;9.904;2023-08-21T11:32:08;2.83;;;1.10;;
13641;SDS011;6894;52.196;9.904;2023-08-21T11:34:36;4.70;;;1.38;;
13641;SDS011;6894;52.196;9.904;2023-08-21T11:37:05;4.20;;;1.40;;
13641;SDS011;6894;52.196;9.904;2023-08-21T11:39:38;2.97;;;1.02;;
13641;SDS011;6894;52.196;9.904;2023-08-21T11:42:08;4.07;;;1.30;;
13641;SDS011;6894;52.196;9.904;2023-08-21T11:44:40;3.97;;;1.38;;
13641;SDS011;6894;52.196;9.904;2023-08-21T11:47:11;2.45;;;1.10;;
13641;SDS011;6894;52.196;9.904;2023-08-21T11:49:39;3.38;;;1.35;;
13641;SDS011;6894;52.196;9.904;2023-08-21T11:52:09;5.03;;;1.48;;
13641;SDS011;6894;52.196;9.904;2023-08-21T11:54:36;3.28;;;0.80;;
13641;SDS011;6894;52.196;9.904;2023-08-21T11:57:05;6.07;;;1.63;;
13641;SDS011;6894;52.196;9.904;2023-08-21T11:59:33;3.80;;;1.02;;
13641;SDS011;6894;52.196;9.904;2023-08-21T12:02:05;4.22;;;1.70;;
13641;SDS011;6894;52.196;9.904;2023-08-21T12:04:35;3.13;;;1.23;;
13641;SDS011;6894;52.196;9.904;2023-08-21T12:07:02;3.17;;;1.27;;
13641;SDS011;6894;52.196;9.904;2023-08-21T12:09:30;4.28;;;1.08;;
13641;SDS011;6894;52.196;9.904;2023-08-21T12:11:57;2.72;;;1.63;;
13641;SDS011;6894;52.196;9.904;2023-08-21T12:14:24;3.95;;;1.30;;
13641;SDS011;6894;52.196;9.904;2023-08-21T12:16:51;3.30;;;1.10;;
13641;SDS011;6894;52.196;9.904;2023-08-21T12:19:17;4.13;;;1.40;;
13641;SDS011;6894;52.196;9.904;2023-08-21T12:21:44;3.95;;;1.20;;
13641;SDS011;6894;52.196;9.904;2023-08-21T12:24:11;3.53;;;1.20;;
13641;SDS011;6894;52.196;9.904;2023-08-21T12:26:39;4.47;;;1.52;;
13641;SDS011;6894;52.196;9.904;2023-08-21T12:29:06;5.00;;;1.45;;
13641;SDS011;6894;52.196;9.904;2023-08-21T12:31:33;3.45;;;0.98;;
13641;SDS011;6894;52.196;9.904;2023-08-21T12:34:01;2.53;;;1.05;;
13641;SDS011;6894;52.196;9.904;2023-08-21T12:36:28;4.15;;;1.10;;
13641;SDS011;6894;52.196;9.904;2023-08-21T12:38:55;3.13;;;1.33;;
13641;SDS011;6894;52.196;9.904;2023-08-21T12:41:22;5.10;;;1.27;;
13641;SDS011;6894;52.196;9.904;2023-08-21T12:43:50;4.70;;;1.40;;
13641;SDS011;6894;52.196;9.904;2023-08-21T12:46:17;4.03;;;1.25;;
13641;SDS011;6894;52.196;9.904;2023-08-21T12:48:43;4.18;;;1.15;;
13641;SDS011;6894;52.196;9.904;2023-08-21T12:51:10;2.83;;;0.93;;
13641;SDS011;6894;52.196;9.904;2023-08-21T12:53:37;2.30;;;0.85;;
13641;SDS011;6894;52.196;9.904;2023-08-21T12:56:03;4.03;;;1.38;;
13641;SDS011;6894;52.196;9.904;2023-08-21T12:58:30;4.15;;;1.27;;
13641;SDS011;6894;52.196;9.904;2023-08-21T13:00:59;5.28;;;1.17;;
13641;SDS011;6894;52.196;9.904;2023-08-21T13:03:28;3.20;;;1.00;;
13641;SDS011;6894;52.196;9.904;2023-08-21T13:05:55;4.70;;;1.20;;
13641;SDS011;6894;52.196;9.904;2023-08-21T13:08:21;4.63;;;1.20;;
13641;SDS011;6894;52.196;9.904;2023-08-21T13:10:48;3.10;;;0.90;;
13641;SDS011;6894;52.196;9.904;2023-08-21T13:13:15;3.65;;;1.02;;
13641;SDS011;6894;52.196;9.904;2023-08-21T13:15:42;4.45;;;1.73;;
13641;SDS011;6894;52.196;9.904;2023-08-21T13:18:11;5.03;;;1.20;;
13641;SDS011;6894;52.196;9.904;2023-08-21T13:20:39;2.00;;;1.15;;
13641;SDS011;6894;52.196;9.904;2023-08-21T13:23:06;2.63;;;1.20;;
13641;SDS011;6894;52.196;9.904;2023-08-21T13:25:33;3.83;;;1.10;;
13641;SDS011;6894;52.196;9.904;2023-08-21T13:28:00;3.47;;;1.30;;
13641;SDS011;6894;52.196;9.904;2023-08-21T13:30:28;2.10;;;0.93;;
13641;SDS011;6894;52.196;9.904;2023-08-21T13:32:55;2.88;;;1.27;;
13641;SDS011;6894;52.196;9.904;2023-08-21T13:35:23;3.97;;;1.05;;
13641;SDS011;6894;52.196;9.904;2023-08-21T13:37:50;4.45;;;1.10;;
13641;SDS011;6894;52.196;9.904;2023-08-21T13:40:17;3.45;;;0.90;;
13641;SDS011;6894;52.196;9.904;2023-08-21T13:42:45;3.28;;;0.90;;
13641;SDS011;6894;52.196;9.904;2023-08-21T13:45:13;3.17;;;0.82;;
13641;SDS011;6894;52.196;9.904;2023-08-21T13:47:43;2.80;;;0.65;;
13641;SDS011;6894;52.196;9.904;2023-08-21T13:50:11;2.92;;;0.60;;
13641;SDS011;6894;52.196;9.904;2023-08-21T13:52:39;2.55;;;0.80;;
13641;SDS011;6894;52.196;9.904;2023-08-21T13:55:07;1.83;;;0.82;;
13641;SDS011;6894;52.196;9.904;2023-08-21T13:57:34;4.35;;;1.00;;
13641;SDS011;6894;52.196;9.904;2023-08-21T14:00:02;3.97;;;0.80;;
13641;SDS011;6894;52.196;9.904;2023-08-21T14:02:32;4.57;;;1.10;;
13641;SDS011;6894;52.196;9.904;2023-08-21T14:04:59;3.50;;;1.00;;
13641;SDS011;6894;52.196;9.904;2023-08-21T14:07:26;4.00;;;1.17;;
13641;SDS011;6894;52.196;9.904;2023-08-21T14:09:54;5.88;;;1.13;;
13641;SDS011;6894;52.196;9.904;2023-08-21T14:12:21;3.03;;;0.90;;
13641;SDS011;6894;52.196;9.904;2023-08-21T14:14:48;1.90;;;0.73;;
13641;SDS011;6894;52.196;9.904;2023-08-21T14:17:14;2.00;;;0.85;;
13641;SDS011;6894;52.196;9.904;2023-08-21T14:19:41;1.88;;;0.82;;
13641;SDS011;6894;52.196;9.904;2023-08-21T14:22:08;3.40;;;0.80;;
13641;SDS011;6894;52.196;9.904;2023-08-21T14:24:35;2.15;;;0.70;;
13641;SDS011;6894;52.196;9.904;2023-08-21T14:27:03;3.85;;;0.90;;
13641;SDS011;6894;52.196;9.904;2023-08-21T14:29:30;3.55;;;0.90;;
13641;SDS011;6894;52.196;9.904;2023-08-21T14:31:57;3.28;;;0.93;;
13641;SDS011;6894;52.196;9.904;2023-08-21T14:34:25;2.38;;;0.93;;
13641;SDS011;6894;52.196;9.904;2023-08-21T14:36:51;2.85;;;0.80;;
13641;SDS011;6894;52.196;9.904;2023-08-21T14:39:19;2.22;;;0.90;;
13641;SDS011;6894;52.196;9.904;2023-08-21T14:41:46;2.42;;;1.10;;
13641;SDS011;6894;52.196;9.904;2023-08-21T14:44:14;2.30;;;0.70;;
13641;SDS011;6894;52.196;9.904;2023-08-21T14:46:41;1.95;;;0.77;;
13641;SDS011;6894;52.196;9.904;2023-08-21T14:49:07;2.95;;;0.80;;
13641;SDS011;6894;52.196;9.904;2023-08-21T14:51:34;4.28;;;0.80;;
13641;SDS011;6894;52.196;9.904;2023-08-21T14:54:02;2.80;;;0.88;;
13641;SDS011;6894;52.196;9.904;2023-08-21T14:56:29;2.47;;;1.17;;
13641;SDS011;6894;52.196;9.904;2023-08-21T14:58:56;2.40;;;0.80;;
13641;SDS011;6894;52.196;9.904;2023-08-21T15:01:24;6.32;;;1.05;;
13641;SDS011;6894;52.196;9.904;2023-08-21T15:03:51;2.72;;;0.90;;